Time;durP1;ratioP1;P1;durP2;ratioP2;P2;SDS_P1;SDS_P2;PMS_P1;PMS_P2;Temp;Humidity;BMP_temperature;BMP_pressure;BME280_temperature;BME280_humidity;BME280_pressure;Samples;Min_cycle;Max_cycle;Signal;HPM_P1;HPM_P2
2022/12/20 00:00:23;;;;;;;;;;;;;;;-7.86;55.41;96721.22;6297275;28;20484;-68
2022/12/20 00:03:26;;;;;;;;;;;;;;;-8.07;55.84;96744.09;6295784;28;19920;-68
2022/12/20 00:06:30;;;;;;;;;;;;;;;-8.18;55.54;96747.44;6297134;28;19942;-68
2022/12/20 00:09:31;;;;;;;;;;;;;;;-8.30;56.47;96741.41;6297024;28;19923;-68
2022/12/20 00:12:34;;;;;;;;;;;;;;;-8.45;56.53;96731.97;6296991;28;19920;-68
2022/12/20 00:16:05;;;;;;;;;;;;;;;-8.43;56.84;96704.78;6296762;28;20308;-67
2022/12/20 00:19:09;;;;;;;;;;;;;;;-8.46;57.45;96710.72;6296180;28;19920;-68
2022/12/20 00:22:10;;;;;;;;;;;;;;;-8.38;57.13;96728.59;6296367;28;19921;-68
2022/12/20 00:25:11;;;;;;;;;;;;;;;-8.34;56.75;96744.78;6296684;28;19920;-68
2022/12/20 00:28:15;;;;;;;;;;;;;;;-8.22;56.85;96743.16;6296502;28;19920;-68
2022/12/20 00:31:17;;;;;;;;;;;;;;;-8.28;56.71;96755.88;6296401;28;20290;-67
2022/12/20 00:34:18;;;;;;;;;;;;;;;-8.37;56.80;96722.66;6296617;28;19928;-69
2022/12/20 00:37:21;;;;;;;;;;;;;;;-8.26;57.08;96721.03;6296134;28;19920;-68
2022/12/20 00:40:23;;;;;;;;;;;;;;;-8.31;56.84;96732.91;6295073;28;19927;-69
2022/12/20 00:43:24;;;;;;;;;;;;;;;-8.38;57.28;96729.47;6296163;28;20381;-69
2022/12/20 00:46:25;;;;;;;;;;;;;;;-8.35;57.57;96718.38;6294915;28;19920;-69
2022/12/20 00:49:28;;;;;;;;;;;;;;;-8.25;56.15;96740.59;6296136;28;19921;-68
2022/12/20 00:52:29;;;;;;;;;;;;;;;-8.47;56.98;96749.81;6296184;28;19920;-67
2022/12/20 00:55:31;;;;;;;;;;;;;;;-8.55;57.52;96740.41;6295836;28;20291;-69
2022/12/20 00:58:33;;;;;;;;;;;;;;;-8.46;57.17;96735.38;6295585;28;19920;-68
2022/12/20 01:01:34;;;;;;;;;;;;;;;-8.53;57.27;96724.25;6295403;28;19928;-67
2022/12/20 01:04:35;;;;;;;;;;;;;;;-8.52;57.60;96709.81;6295157;28;20409;-68
2022/12/20 01:07:37;;;;;;;;;;;;;;;-8.53;57.00;96738.72;6295936;28;19977;-68
2022/12/20 01:10:43;;;;;;;;;;;;;;;-8.59;57.68;96760.78;6296168;28;19924;-68
2022/12/20 01:13:46;;;;;;;;;;;;;;;-8.47;56.85;96767.69;6296015;28;19927;-68
2022/12/20 01:16:50;;;;;;;;;;;;;;;-8.57;57.59;96755.72;6295916;28;19920;-68
2022/12/20 01:19:51;;;;;;;;;;;;;;;-8.57;57.23;96742.09;6295799;28;19920;-68
2022/12/20 01:22:52;;;;;;;;;;;;;;;-8.45;57.09;96744.75;6295669;28;19920;-68
2022/12/20 01:25:53;;;;;;;;;;;;;;;-8.53;57.43;96751.47;6295720;28;19941;-68
2022/12/20 01:28:58;;;;;;;;;;;;;;;-8.54;57.24;96765.94;6297656;28;20347;-68
2022/12/20 01:31:59;;;;;;;;;;;;;;;-8.49;56.83;96782.16;6300704;28;19920;-68
2022/12/20 01:35:02;;;;;;;;;;;;;;;-8.55;56.77;96771.88;6300510;28;19991;-67
2022/12/20 01:38:06;;;;;;;;;;;;;;;-8.50;56.65;96784.66;6300563;28;19998;-68
2022/12/20 01:41:19;;;;;;;;;;;;;;;-8.56;56.93;96789.72;6300365;28;19995;-67
2022/12/20 01:44:22;;;;;;;;;;;;;;;-8.54;57.30;96780.41;6300516;28;19920;-68
2022/12/20 01:47:24;;;;;;;;;;;;;;;-8.54;57.36;96763.38;6300000;28;19927;-68
2022/12/20 01:50:25;;;;;;;;;;;;;;;-8.45;57.31;96778.75;6300087;28;19927;-68
2022/12/20 01:53:28;;;;;;;;;;;;;;;-8.40;56.97;96776.25;6299696;28;19986;-68
2022/12/20 01:56:31;;;;;;;;;;;;;;;-8.38;56.64;96775.41;6299896;28;20289;-69
2022/12/20 01:59:35;;;;;;;;;;;;;;;-8.50;56.89;96784.66;6299989;28;19920;-69
2022/12/20 02:02:36;;;;;;;;;;;;;;;-8.47;57.04;96794.91;6299097;28;19920;-68
2022/12/20 02:05:38;;;;;;;;;;;;;;;-8.46;57.26;96802.56;6299982;28;19932;-69
2022/12/20 02:08:40;;;;;;;;;;;;;;;-8.38;57.08;96789.81;6299917;28;19920;-68
2022/12/20 02:11:47;;;;;;;;;;;;;;;-8.31;57.00;96790.75;6299780;28;19935;-68
2022/12/20 02:15:00;;;;;;;;;;;;;;;-8.41;56.75;96797.50;6299715;28;19920;-68
2022/12/20 02:18:00;;;;;;;;;;;;;;;-8.47;56.67;96803.41;6299545;28;20078;-68
2022/12/20 02:21:18;;;;;;;;;;;;;;;-8.52;56.50;96811.84;6299426;28;19921;-68
2022/12/20 02:24:38;;;;;;;;;;;;;;;-8.52;57.06;96807.63;6299523;28;20317;-68
2022/12/20 02:27:51;;;;;;;;;;;;;;;-8.36;56.41;96798.34;6299277;28;20019;-69
2022/12/20 02:30:56;;;;;;;;;;;;;;;-8.31;55.41;96791.59;6299239;28;19920;-68
2022/12/20 02:34:01;;;;;;;;;;;;;;;-8.35;54.28;96805.16;6299120;28;19927;-68
2022/12/20 02:37:02;;;;;;;;;;;;;;;-8.57;55.01;96813.53;6299083;28;19920;-68
2022/12/20 02:40:04;;;;;;;;;;;;;;;-8.71;55.60;96815.97;6298311;28;19927;-68
2022/12/20 02:45:14;;;;;;;;;;;;;;;-8.85;55.22;96823.47;6298327;28;19927;-68
2022/12/20 02:46:30;;;;;;;;;;;;;;;-8.99;55.68;96830.13;6298797;28;19920;-69
2022/12/20 02:49:37;;;;;;;;;;;;;;;-9.15;56.38;96829.94;6298364;28;19921;-68
2022/12/20 02:52:41;;;;;;;;;;;;;;;-9.23;56.44;96830.69;6298647;28;20339;-68
2022/12/20 02:55:45;;;;;;;;;;;;;;;-9.23;56.37;96846.84;6298453;28;20011;-68
2022/12/20 02:58:50;;;;;;;;;;;;;;;-9.37;55.98;96848.34;6297880;28;19924;-68
2022/12/20 03:01:53;;;;;;;;;;;;;;;-9.53;56.73;96858.38;6298632;28;19920;-68
2022/12/20 03:04:57;;;;;;;;;;;;;;;-9.62;56.50;96862.47;6298386;28;19920;-69
2022/12/20 03:08:03;;;;;;;;;;;;;;;-9.77;56.89;96847.84;6298404;28;19928;-68
2022/12/20 03:11:04;;;;;;;;;;;;;;;-9.77;57.26;96835.09;6298053;28;19920;-68
2022/12/20 03:14:07;;;;;;;;;;;;;;;-9.76;57.23;96834.28;6297965;28;19920;-68
2022/12/20 03:17:09;;;;;;;;;;;;;;;-9.80;57.05;96832.53;6298095;28;19920;-69
2022/12/20 03:20:16;;;;;;;;;;;;;;;-9.85;57.03;96844.31;6298146;28;20482;-69
2022/12/20 03:23:20;;;;;;;;;;;;;;;-9.92;56.83;96852.72;6297948;28;19920;-68
2022/12/20 03:26:24;;;;;;;;;;;;;;;-10.10;57.04;96859.25;6297698;28;20278;-69
2022/12/20 03:29:25;;;;;;;;;;;;;;;-10.20;57.15;96862.47;6297669;28;20718;-68
2022/12/20 03:33:05;;;;;;;;;;;;;;;-10.16;56.81;96843.91;6297490;28;19927;-69
2022/12/20 03:36:22;;;;;;;;;;;;;;;-10.18;56.51;96861.69;6297661;28;19974;-68
2022/12/20 03:39:26;;;;;;;;;;;;;;;-10.34;56.80;96861.44;6296219;28;19926;-67
2022/12/20 03:42:27;;;;;;;;;;;;;;;-10.54;56.94;96856.03;6295090;28;19959;-69
2022/12/20 03:45:32;;;;;;;;;;;;;;;-10.58;56.93;96872.91;6297457;28;19920;-69
2022/12/20 03:48:39;;;;;;;;;;;;;;;-10.73;57.21;96890.44;6297272;28;20324;-68
2022/12/20 03:51:40;;;;;;;;;;;;;;;-10.79;57.42;96897.94;6296854;28;20425;-69
2022/12/20 03:54:44;;;;;;;;;;;;;;;-10.93;57.67;96893.44;6296894;28;19925;-68
2022/12/20 03:57:48;;;;;;;;;;;;;;;-10.92;57.92;96905.34;6297234;28;19920;-69
2022/12/20 04:00:55;;;;;;;;;;;;;;;-11.06;58.10;96904.22;6297154;28;20396;-68
2022/12/20 04:03:56;;;;;;;;;;;;;;;-11.11;58.17;96899.03;6296640;28;19927;-68
2022/12/20 04:07:01;;;;;;;;;;;;;;;-11.22;58.16;96894.59;6296790;28;19920;-69
2022/12/20 04:10:08;;;;;;;;;;;;;;;-11.33;58.25;96907.91;6296780;28;19920;-68
2022/12/20 04:13:09;;;;;;;;;;;;;;;-11.41;58.64;96914.50;6296624;28;19931;-69
2022/12/20 04:16:16;;;;;;;;;;;;;;;-11.45;58.94;96911.88;6296426;28;20396;-69
2022/12/20 04:19:25;;;;;;;;;;;;;;;-11.47;59.13;96914.38;6296551;28;19965;-69
2022/12/20 04:22:31;;;;;;;;;;;;;;;-11.36;59.33;96897.69;6296523;28;19934;-69
2022/12/20 04:25:35;;;;;;;;;;;;;;;-11.29;59.07;96908.84;6296410;28;19920;-68
2022/12/20 04:28:36;;;;;;;;;;;;;;;-11.26;59.01;96908.91;6296273;28;20451;-69
2022/12/20 04:31:40;;;;;;;;;;;;;;;-11.26;58.82;96924.16;6296348;28;19924;-68
2022/12/20 04:34:46;;;;;;;;;;;;;;;-11.34;59.09;96936.69;6296205;28;19928;-68
2022/12/20 04:37:49;;;;;;;;;;;;;;;-11.39;59.04;96935.72;6296488;28;19924;-68
2022/12/20 04:40:56;;;;;;;;;;;;;;;-11.44;59.65;96929.69;6295923;28;19920;-68
2022/12/20 04:43:57;;;;;;;;;;;;;;;-11.50;59.23;96929.56;6295865;28;19927;-68
2022/12/20 04:47:03;;;;;;;;;;;;;;;-11.56;59.56;96926.88;6295042;28;19927;-67
2022/12/20 04:50:05;;;;;;;;;;;;;;;-11.55;59.82;96938.75;6294867;28;19920;-69
2022/12/20 04:56:32;;;;;;;;;;;;;;;-11.35;59.47;96940.06;6296135;28;19922;-68
2022/12/20 04:59:43;;;;;;;;;;;;;;;-11.35;59.42;96940.06;6296134;28;20378;-68
2022/12/20 05:02:50;;;;;;;;;;;;;;;-11.26;59.24;96948.66;6278513;28;19924;-70
2022/12/20 05:05:56;;;;;;;;;;;;;;;-11.24;58.99;96947.88;6296011;28;19920;-68
2022/12/20 05:08:57;;;;;;;;;;;;;;;-11.22;59.08;96956.41;6295011;28;20405;-68
2022/12/20 05:12:01;;;;;;;;;;;;;;;-11.22;59.13;96956.41;6295713;28;20354;-68
2022/12/20 05:15:04;;;;;;;;;;;;;;;-11.13;58.91;96955.72;6295911;28;19920;-67
2022/12/20 05:18:05;;;;;;;;;;;;;;;-11.08;59.05;96954.16;6295799;28;20310;-67
2022/12/20 05:27:52;;;;;;;;;;;;;;;-10.82;58.64;96953.81;6295623;28;19965;-68
2022/12/20 05:30:53;;;;;;;;;;;;;;;-10.72;58.56;96963.34;6295397;28;19916;-68
2022/12/20 05:33:56;;;;;;;;;;;;;;;-10.62;58.23;96955.91;6295477;28;19920;-68
2022/12/20 05:37:06;;;;;;;;;;;;;;;-10.56;57.98;96944.97;6295279;28;20386;-68
2022/12/20 05:40:10;;;;;;;;;;;;;;;-10.54;57.57;96958.59;6294719;28;19920;-68
2022/12/20 05:43:14;;;;;;;;;;;;;;;-10.46;57.48;96966.38;6295207;28;20434;-68
2022/12/20 05:46:17;;;;;;;;;;;;;;;-10.34;57.58;96971.66;6295410;28;19920;-68
2022/12/20 05:49:21;;;;;;;;;;;;;;;-10.28;57.48;96978.56;6295431;28;20377;-68
2022/12/20 05:52:24;;;;;;;;;;;;;;;-10.25;57.81;96971.78;6295325;28;20001;-68
2022/12/20 05:55:26;;;;;;;;;;;;;;;-10.23;57.08;96969.28;6294975;28;19921;-68
2022/12/20 05:58:34;;;;;;;;;;;;;;;-10.18;57.36;96972.78;6295424;28;20393;-69
2022/12/20 06:01:38;;;;;;;;;;;;;;;-10.10;57.73;96976.31;6295474;28;19920;-69
2022/12/20 06:04:41;;;;;;;;;;;;;;;-10.08;57.30;96979.72;6295026;28;19924;-68
2022/12/20 06:07:42;;;;;;;;;;;;;;;-10.11;57.43;96982.22;6295166;28;19920;-68
2022/12/20 06:10:46;;;;;;;;;;;;;;;-10.05;57.25;96982.31;6295118;28;19924;-68
2022/12/20 06:13:51;;;;;;;;;;;;;;;-9.89;56.95;96980.03;6295091;28;19924;-68
2022/12/20 06:16:54;;;;;;;;;;;;;;;-9.77;56.56;96985.31;6296470;28;19927;-69
2022/12/20 06:19:55;;;;;;;;;;;;;;;-9.63;57.04;96981.31;6299475;28;19987;-67
2022/12/20 06:22:56;;;;;;;;;;;;;;;-9.54;57.14;96980.59;6299461;28;19920;-69
2022/12/20 06:25:57;;;;;;;;;;;;;;;-9.53;56.86;96980.63;6299479;28;20439;-68
2022/12/20 06:29:09;;;;;;;;;;;;;;;-9.53;56.55;96980.63;6299533;28;19920;-69
2022/12/20 06:32:10;;;;;;;;;;;;;;;-9.51;56.09;96984.06;6299216;28;20420;-69
2022/12/20 06:35:14;;;;;;;;;;;;;;;-9.62;56.07;96975.41;6299248;28;19927;-68
2022/12/20 06:38:17;;;;;;;;;;;;;;;-9.82;55.98;96987.81;6299288;28;19920;-68
2022/12/20 06:41:20;;;;;;;;;;;;;;;-10.01;56.23;96984.09;6298881;28;20021;-68
2022/12/20 06:44:31;;;;;;;;;;;;;;;-10.13;56.03;96976.25;6298888;28;20011;-68
2022/12/20 06:47:34;;;;;;;;;;;;;;;-10.13;56.62;96976.25;6298800;28;20254;-68
2022/12/20 06:50:43;;;;;;;;;;;;;;;-10.08;56.81;96969.53;6298737;28;20069;-68
2022/12/20 06:53:50;;;;;;;;;;;;;;;-9.98;56.82;96965.47;6298791;28;20378;-69
2022/12/20 06:56:53;;;;;;;;;;;;;;;-9.90;56.45;96963.94;6298240;28;20301;-68
2022/12/20 06:59:54;;;;;;;;;;;;;;;-9.83;56.59;96962.31;6297813;28;19936;-68
2022/12/20 07:02:55;;;;;;;;;;;;;;;-9.70;56.49;96960.84;6298419;28;20055;-68
2022/12/20 07:06:02;;;;;;;;;;;;;;;-9.56;56.05;96959.34;6298554;28;19950;-68
2022/12/20 07:09:09;;;;;;;;;;;;;;;-9.27;55.91;96952.97;6298178;28;19942;-68
2022/12/20 07:12:13;;;;;;;;;;;;;;;-8.90;55.54;96957.69;6298465;28;19935;-69
2022/12/20 07:15:16;;;;;;;;;;;;;;;-8.62;54.79;96949.53;6298239;28;19920;-69
2022/12/20 07:18:20;;;;;;;;;;;;;;;-7.04;55.24;96957.63;6298068;28;20285;-68
2022/12/20 07:21:27;;;;;;;;;;;;;;;-1.44;48.27;96960.63;6298108;28;20427;-69
2022/12/20 07:24:28;;;;;;;;;;;;;;;4.10;40.28;96957.84;6297955;28;20009;-67
2022/12/20 07:27:30;;;;;;;;;;;;;;;8.36;34.51;96951.28;6297645;28;19920;-69
2022/12/20 07:30:38;;;;;;;;;;;;;;;11.93;29.93;96952.09;6297672;28;20018;-69
2022/12/20 07:33:45;;;;;;;;;;;;;;;14.37;26.90;96953.44;6297878;28;19920;-68
2022/12/20 07:36:58;;;;;;;;;;;;;;;15.41;27.08;96959.25;6297531;28;19920;-69
2022/12/20 07:40:02;;;;;;;;;;;;;;;14.64;25.56;96962.00;6297507;28;19920;-69
2022/12/20 07:43:04;;;;;;;;;;;;;;;14.35;24.09;96963.31;6296973;28;20419;-69
2022/12/20 07:46:05;;;;;;;;;;;;;;;14.70;29.32;96957.06;6296631;28;19920;-69
2022/12/20 07:49:11;;;;;;;;;;;;;;;15.42;28.28;96959.09;6296960;28;19924;-70
2022/12/20 07:52:15;;;;;;;;;;;;;;;17.22;27.23;96964.88;6296080;28;20019;-69
2022/12/20 07:55:19;;;;;;;;;;;;;;;18.87;27.27;96964.56;6295320;28;20039;-69
2022/12/20 07:58:26;;;;;;;;;;;;;;;20.09;22.94;96950.69;6296625;28;20397;-70
2022/12/20 08:01:29;;;;;;;;;;;;;;;20.50;20.90;96954.44;6295334;28;19927;-70
2022/12/20 08:04:33;;;;;;;;;;;;;;;20.09;24.57;96946.16;6296861;28;19920;-69
2022/12/20 08:07:38;;;;;;;;;;;;;;;19.81;25.07;96947.31;6296862;28;19920;-73
2022/12/20 08:10:45;;;;;;;;;;;;;;;20.09;23.96;96945.34;6297235;28;19943;-72
2022/12/20 08:13:49;;;;;;;;;;;;;;;20.54;23.49;96950.47;6296488;28;20304;-72
2022/12/20 08:16:53;;;;;;;;;;;;;;;20.71;21.84;96945.19;6295586;28;19921;-73
2022/12/20 08:19:56;;;;;;;;;;;;;;;20.42;19.85;96933.84;6295993;28;19982;-68
2022/12/20 08:23:07;;;;;;;;;;;;;;;20.16;18.47;96931.19;6296387;28;20394;-70
2022/12/20 08:26:08;;;;;;;;;;;;;;;20.13;18.55;96915.50;6296543;28;20058;-70
2022/12/20 08:29:14;;;;;;;;;;;;;;;21.01;19.85;96925.09;6296627;28;19998;-70
2022/12/20 08:32:20;;;;;;;;;;;;;;;21.56;20.64;96929.03;6296609;28;19977;-69
2022/12/20 08:35:26;;;;;;;;;;;;;;;22.00;20.38;96926.00;6296386;28;19971;-69
2022/12/20 08:38:30;;;;;;;;;;;;;;;21.52;17.54;96920.50;6295732;28;19928;-69
2022/12/20 08:41:36;;;;;;;;;;;;;;;20.94;16.37;96921.38;6295703;28;20393;-69
2022/12/20 08:44:43;;;;;;;;;;;;;;;20.97;18.08;96929.91;6296261;28;20550;-70
2022/12/20 08:47:47;;;;;;;;;;;;;;;21.28;19.26;96931.97;6296093;28;19920;-70
2022/12/20 08:51:00;;;;;;;;;;;;;;;21.34;17.52;96925.13;6295884;28;20275;-69
2022/12/20 08:54:06;;;;;;;;;;;;;;;20.85;16.16;96931.22;6295971;28;19920;-71
2022/12/20 08:57:09;;;;;;;;;;;;;;;20.89;18.26;96929.03;6295730;28;19924;-70
2022/12/20 09:00:10;;;;;;;;;;;;;;;20.99;14.81;96922.56;6295203;28;19920;-70
2022/12/20 09:03:12;;;;;;;;;;;;;;;21.40;18.06;96925.34;6295126;28;19916;-70
2022/12/20 09:06:18;;;;;;;;;;;;;;;21.65;17.57;96928.84;6295395;28;19924;-70
2022/12/20 09:09:20;;;;;;;;;;;;;;;21.88;16.93;96939.75;6295908;28;19921;-70
2022/12/20 09:12:24;;;;;;;;;;;;;;;21.86;15.67;96941.75;6296006;28;19916;-70
2022/12/20 09:15:33;;;;;;;;;;;;;;;21.99;18.29;96935.84;6295634;28;19944;-70
2022/12/20 09:18:38;;;;;;;;;;;;;;;22.46;18.28;96932.44;6294739;28;19920;-69
2022/12/20 09:21:42;;;;;;;;;;;;;;;22.44;17.97;96933.63;6295437;28;20689;-70
2022/12/20 09:24:48;;;;;;;;;;;;;;;22.26;16.48;96928.50;6295494;28;20061;-70
2022/12/20 09:27:50;;;;;;;;;;;;;;;22.13;15.23;96927.13;6294990;28;20011;-71
2022/12/20 09:31:01;;;;;;;;;;;;;;;21.93;14.25;96926.66;6295334;28;19972;-71
2022/12/20 09:34:06;;;;;;;;;;;;;;;21.58;17.33;96917.16;6294107;28;19920;-72
2022/12/20 09:37:10;;;;;;;;;;;;;;;21.28;15.21;96907.88;6295272;28;19973;-71
2022/12/20 09:40:19;;;;;;;;;;;;;;;20.67;18.77;96917.13;6295634;28;19956;-71
2022/12/20 09:43:47;;;;;;;;;;;;;;;20.43;13.33;96907.94;6294310;28;19920;-72
2022/12/20 09:46:54;;;;;;;;;;;;;;;19.94;17.94;96910.34;6280925;28;19924;-70
2022/12/20 09:50:13;;;;;;;;;;;;;;;19.80;18.77;96917.09;6296665;28;19920;-70
2022/12/20 09:53:39;;;;;;;;;;;;;;;19.80;17.88;96909.09;6299769;28;20007;-70
2022/12/20 09:56:56;;;;;;;;;;;;;;;19.57;14.42;96907.91;6299252;28;20308;-70
2022/12/20 10:00:13;;;;;;;;;;;;;;;19.13;14.25;96915.84;6299821;28;19920;-71
2022/12/20 10:03:22;;;;;;;;;;;;;;;18.35;15.59;96922.44;6299834;28;20302;-72
2022/12/20 10:06:45;;;;;;;;;;;;;;;16.13;16.90;96914.19;6299643;28;19927;-71
2022/12/20 10:10:05;;;;;;;;;;;;;;;11.62;22.14;96911.16;6299524;28;19927;-70
2022/12/20 10:13:19;;;;;;;;;;;;;;;7.57;23.57;96898.75;6299374;28;19920;-71
2022/12/20 10:16:43;;;;;;;;;;;;;;;4.53;24.95;96906.69;6299438;28;19920;-69
2022/12/20 10:19:53;;;;;;;;;;;;;;;2.50;28.67;96903.63;6298268;28;19920;-69
2022/12/20 10:23:00;;;;;;;;;;;;;;;1.21;33.62;96914.38;6299092;28;19920;-69
2022/12/20 10:26:13;;;;;;;;;;;;;;;0.23;34.61;96915.13;6299329;28;20382;-69
2022/12/20 10:29:19;;;;;;;;;;;;;;;-0.55;35.40;96907.31;6299030;28;19934;-69
2022/12/20 10:32:26;;;;;;;;;;;;;;;-1.23;34.54;96909.50;6298673;28;19920;-70
2022/12/20 10:35:35;;;;;;;;;;;;;;;-1.83;34.99;96910.47;6299139;28;19921;-69
2022/12/20 10:38:44;;;;;;;;;;;;;;;-2.29;34.51;96904.28;6298710;28;19920;-69
2022/12/20 10:41:47;;;;;;;;;;;;;;;-2.66;34.50;96903.91;6299198;28;19927;-70
2022/12/20 10:44:56;;;;;;;;;;;;;;;-3.03;34.40;96908.59;6299402;28;19920;-69
2022/12/20 10:48:01;;;;;;;;;;;;;;;-3.38;35.33;96907.25;6296976;28;20065;-69
2022/12/20 10:51:11;;;;;;;;;;;;;;;-3.69;36.13;96902.38;6298798;28;20132;-69
2022/12/20 10:54:22;;;;;;;;;;;;;;;-4.06;35.69;96906.94;6298822;28;19928;-68
2022/12/20 10:57:25;;;;;;;;;;;;;;;-4.37;35.57;96914.00;6298025;28;20006;-68
2022/12/20 11:00:28;;;;;;;;;;;;;;;-4.60;35.68;96903.84;6297877;28;19920;-69
2022/12/20 11:03:48;;;;;;;;;;;;;;;-4.83;35.56;96911.66;6296821;28;20348;-69
2022/12/20 11:06:49;;;;;;;;;;;;;;;-5.06;36.25;96911.72;6298102;28;20400;-69
2022/12/20 11:09:55;;;;;;;;;;;;;;;-5.26;35.93;96906.66;6298198;28;19932;-69
2022/12/20 11:13:00;;;;;;;;;;;;;;;-5.48;35.55;96898.97;6297443;28;19931;-68
2022/12/20 11:16:01;;;;;;;;;;;;;;;-5.67;36.41;96905.81;6297633;28;20065;-68
2022/12/20 11:19:20;;;;;;;;;;;;;;;-5.87;36.11;96908.41;6298176;28;20408;-67
2022/12/20 11:22:21;;;;;;;;;;;;;;;-6.05;36.52;96911.00;6297984;28;20421;-69
2022/12/20 11:25:42;;;;;;;;;;;;;;;-6.20;36.45;96908.41;6298056;28;19920;-69
2022/12/20 11:28:47;;;;;;;;;;;;;;;-6.36;36.50;96913.53;6297881;28;19927;-69
2022/12/20 11:32:06;;;;;;;;;;;;;;;-6.53;36.65;96904.94;6297801;28;20411;-69
2022/12/20 11:35:11;;;;;;;;;;;;;;;-6.70;37.17;96906.59;6297647;28;19920;-69
2022/12/20 11:38:12;;;;;;;;;;;;;;;-6.90;37.48;96898.88;6297632;28;19942;-68
2022/12/20 11:41:33;;;;;;;;;;;;;;;-7.08;36.73;96897.06;6297512;28;19950;-68
2022/12/20 11:44:50;;;;;;;;;;;;;;;-7.29;37.31;96908.91;6296126;28;19920;-69
2022/12/20 11:47:54;;;;;;;;;;;;;;;-7.47;37.27;96906.25;6297407;28;19960;-69
2022/12/20 11:51:04;;;;;;;;;;;;;;;-7.61;37.98;96912.94;6297162;28;20389;-68
2022/12/20 11:54:13;;;;;;;;;;;;;;;-7.85;37.46;96906.81;6296985;28;19965;-68
2022/12/20 11:57:38;;;;;;;;;;;;;;;-8.05;38.54;96908.38;6297063;28;20057;-68
2022/12/20 12:00:45;;;;;;;;;;;;;;;-8.26;38.75;96907.34;6269288;28;20393;-68
2022/12/20 12:03:54;;;;;;;;;;;;;;;-8.46;38.49;96908.91;6296976;28;19927;-68
2022/12/20 12:07:05;;;;;;;;;;;;;;;-8.61;38.87;96912.97;6296986;28;19927;-69
2022/12/20 12:10:23;;;;;;;;;;;;;;;-8.75;39.55;96917.06;6296449;28;19942;-68
2022/12/20 12:13:29;;;;;;;;;;;;;;;-8.87;39.33;96912.69;6295388;28;19920;-68
2022/12/20 12:16:47;;;;;;;;;;;;;;;-8.91;39.36;96916.06;6295927;28;19963;-69
2022/12/20 12:20:01;;;;;;;;;;;;;;;-8.98;39.62;96910.84;6295433;28;19924;-68
2022/12/20 12:23:09;;;;;;;;;;;;;;;-9.04;39.76;96904.84;6296040;28;19920;-69
2022/12/20 12:26:33;;;;;;;;;;;;;;;-9.10;40.94;96914.97;6296377;28;19924;-67
2022/12/20 12:29:42;;;;;;;;;;;;;;;-9.16;40.17;96920.00;6296035;28;19920;-69
2022/12/20 12:33:01;;;;;;;;;;;;;;;-9.27;40.97;96911.34;6295960;28;19920;-68
2022/12/20 12:36:28;;;;;;;;;;;;;;;-9.36;40.54;96916.34;6296523;28;20309;-68
2022/12/20 12:39:50;;;;;;;;;;;;;;;-9.53;40.88;96914.41;6265872;28;19947;-70
2022/12/20 12:43:03;;;;;;;;;;;;;;;-9.67;40.35;96921.00;6296244;28;19927;-68
2022/12/20 12:46:15;;;;;;;;;;;;;;;-9.84;40.94;96914.78;6296100;28;19920;-69
2022/12/20 12:49:18;;;;;;;;;;;;;;;-9.92;40.97;96913.81;6295929;28;19920;-69
2022/12/20 12:52:36;;;;;;;;;;;;;;;-10.06;40.99;96922.09;6295956;28;19927;-69
2022/12/20 12:55:42;;;;;;;;;;;;;;;-10.21;41.46;96907.44;6295642;28;19920;-69
2022/12/20 12:59:05;;;;;;;;;;;;;;;-10.29;41.68;96915.78;6295789;28;19921;-68
2022/12/20 13:02:12;;;;;;;;;;;;;;;-10.38;41.91;96913.09;6295792;28;19920;-69
2022/12/20 13:05:13;;;;;;;;;;;;;;;-10.45;41.76;96918.06;6295905;28;19931;-68
2022/12/20 13:08:17;;;;;;;;;;;;;;;-10.50;41.70;96918.81;6295586;28;19985;-68
2022/12/20 13:11:29;;;;;;;;;;;;;;;-10.59;41.96;96919.50;6295037;28;19920;-69
2022/12/20 13:14:36;;;;;;;;;;;;;;;-10.69;42.19;96913.41;6295356;28;19920;-69
2022/12/20 13:17:44;;;;;;;;;;;;;;;-10.78;41.82;96907.28;6295672;28;19920;-69
2022/12/20 13:21:05;;;;;;;;;;;;;;;-10.91;42.01;96906.19;6295296;28;19916;-68
2022/12/20 13:24:25;;;;;;;;;;;;;;;-11.03;43.59;96901.75;6295789;28;20370;-69
2022/12/20 13:27:31;;;;;;;;;;;;;;;-11.06;42.57;96901.69;6300888;28;20389;-68
2022/12/20 13:30:33;;;;;;;;;;;;;;;-11.11;42.38;96909.22;6300705;28;19916;-68
2022/12/20 13:33:44;;;;;;;;;;;;;;;-11.21;42.48;96904.75;6300640;28;19920;-69
2022/12/20 13:36:45;;;;;;;;;;;;;;;-11.30;42.73;96902.88;6299478;28;19927;-69
2022/12/20 13:40:00;;;;;;;;;;;;;;;-11.39;43.00;96907.78;6300147;28;20015;-69
2022/12/20 13:43:16;;;;;;;;;;;;;;;-11.49;42.68;96900.81;6300081;28;19920;-69
2022/12/20 13:46:31;;;;;;;;;;;;;;;-11.56;42.92;96898.97;6300384;28;20066;-68
2022/12/20 13:50:17;;;;;;;;;;;;;;;-11.59;43.09;96903.97;6299658;28;19921;-69
2022/12/20 13:53:28;;;;;;;;;;;;;;;-11.64;42.97;96905.53;6299618;28;20385;-68
2022/12/20 13:56:38;;;;;;;;;;;;;;;-11.64;42.92;96898.78;6299847;28;19924;-68
2022/12/20 13:59:39;;;;;;;;;;;;;;;-11.60;43.24;96902.28;6299790;28;20361;-69
2022/12/20 14:02:41;;;;;;;;;;;;;;;-11.56;42.63;96906.56;6300301;28;19927;-69
2022/12/20 14:05:44;;;;;;;;;;;;;;;-11.58;43.03;96900.59;6300162;28;19974;-69
2022/12/20 14:08:51;;;;;;;;;;;;;;;-11.64;42.78;96897.94;6299808;28;20374;-69
2022/12/20 14:12:02;;;;;;;;;;;;;;;-11.73;42.80;96905.34;6299481;28;19927;-69
2022/12/20 14:15:19;;;;;;;;;;;;;;;-11.77;42.82;96910.38;6299699;28;19927;-68
2022/12/20 14:18:22;;;;;;;;;;;;;;;-11.75;43.65;96897.69;6299356;28;19921;-68
2022/12/20 14:21:24;;;;;;;;;;;;;;;-11.67;42.88;96896.19;6299653;28;20309;-69
2022/12/20 14:24:28;;;;;;;;;;;;;;;-11.66;42.86;96907.19;6299776;28;19920;-69
2022/12/20 14:27:32;;;;;;;;;;;;;;;-11.71;43.05;96898.63;6299371;28;20305;-68
2022/12/20 14:30:41;;;;;;;;;;;;;;;-11.76;42.93;96901.91;6299272;28;20404;-70
2022/12/20 14:33:45;;;;;;;;;;;;;;;-11.78;42.92;96908.63;6299429;28;19920;-69
2022/12/20 14:36:47;;;;;;;;;;;;;;;-11.77;42.99;96904.44;6297876;28;19920;-68
2022/12/20 14:40:14;;;;;;;;;;;;;;;-11.71;42.89;96912.19;6299170;28;19921;-68
2022/12/20 14:43:23;;;;;;;;;;;;;;;-11.76;43.16;96913.75;6290772;28;19924;-69
2022/12/20 14:46:24;;;;;;;;;;;;;;;-11.78;42.93;96913.69;6299016;28;19920;-69
2022/12/20 14:49:33;;;;;;;;;;;;;;;-11.75;43.03;96907.84;6298686;28;19920;-69
2022/12/20 14:52:37;;;;;;;;;;;;;;;-11.72;43.02;96912.13;6298842;28;19928;-70
2022/12/20 14:55:44;;;;;;;;;;;;;;;-11.64;42.99;96910.63;6298519;28;19924;-68
2022/12/20 14:59:00;;;;;;;;;;;;;;;-11.60;42.81;96912.41;6298789;28;19920;-68
2022/12/20 15:02:23;;;;;;;;;;;;;;;-11.49;42.99;96910.09;6298581;28;20445;-69
2022/12/20 15:05:33;;;;;;;;;;;;;;;-11.44;43.20;96909.38;6288768;28;19978;-69
2022/12/20 15:08:36;;;;;;;;;;;;;;;-11.45;43.18;96917.81;6298381;28;20301;-69
2022/12/20 15:11:41;;;;;;;;;;;;;;;-11.51;43.29;96912.63;6298648;28;20301;-69
2022/12/20 15:14:42;;;;;;;;;;;;;;;-11.59;43.49;96916.66;6298306;28;19920;-68
2022/12/20 15:17:49;;;;;;;;;;;;;;;-11.68;43.87;96911.41;6298451;28;20429;-70
2022/12/20 15:21:05;;;;;;;;;;;;;;;-11.70;43.61;96923.19;6298139;28;19920;-70
2022/12/20 15:24:10;;;;;;;;;;;;;;;-11.78;43.81;96913.69;6298087;28;20401;-69
2022/12/20 15:27:14;;;;;;;;;;;;;;;-11.83;44.33;96920.38;6298277;28;19974;-68
2022/12/20 15:30:17;;;;;;;;;;;;;;;-11.80;44.36;96925.53;6297741;28;20183;-69
2022/12/20 15:33:22;;;;;;;;;;;;;;;-11.83;44.18;96925.47;6298077;28;19920;-68
2022/12/20 15:36:27;;;;;;;;;;;;;;;-11.92;44.09;96922.72;6297696;28;19920;-69
2022/12/20 15:39:36;;;;;;;;;;;;;;;-11.83;44.39;96922.91;6297314;28;19920;-68
2022/12/20 15:42:41;;;;;;;;;;;;;;;-11.85;44.57;96919.47;6297793;28;19920;-69
2022/12/20 15:45:46;;;;;;;;;;;;;;;-11.80;45.00;96909.44;6297565;28;19921;-69
2022/12/20 15:48:52;;;;;;;;;;;;;;;-11.71;44.82;96913.88;6297318;28;19921;-68
2022/12/20 15:51:56;;;;;;;;;;;;;;;-11.73;44.89;96920.59;6297284;28;19920;-68
2022/12/20 15:55:02;;;;;;;;;;;;;;;-11.80;44.85;96919.59;6296896;28;19947;-69
2022/12/20 15:58:07;;;;;;;;;;;;;;;-12.04;45.34;96919.91;6297303;28;20386;-68
2022/12/20 16:01:11;;;;;;;;;;;;;;;-12.07;45.41;96914.75;6297102;28;19920;-69
2022/12/20 16:04:16;;;;;;;;;;;;;;;-12.09;45.81;96911.31;6297144;28;19932;-69
2022/12/20 16:07:24;;;;;;;;;;;;;;;-12.13;46.16;96915.47;6297015;28;20305;-70
2022/12/20 16:10:27;;;;;;;;;;;;;;;-12.10;45.57;96909.63;6296890;28;19920;-69
2022/12/20 16:13:30;;;;;;;;;;;;;;;-12.14;45.50;96915.41;6297059;28;19952;-68
2022/12/20 16:16:35;;;;;;;;;;;;;;;-12.21;45.76;96912.75;6296880;28;19921;-70